ADDS METAR Data INFO
IDs: Format: Raw Decoded Include TAF

Data at: 0318 UTC 20 Jul 2018

KTIX 200045Z VRBO04KT 7SM SKC 28/24 A2998 RMK LAST
KTIX 192347Z VRBO04KT 7SM SKC 28/24 A2996
KTIX 192247Z VRBO04KT 7SM SKC 29/23 A2995
KTIX 192151Z VRBO04KT 7SM SKC 29/24 A2996
KTIX 192053Z VRBO04KT 6SM -RA BKN060 28/27 A2997
KTIX 191955Z 21004KT 6SM HZ SCT025 BKN060 27/26 A2999
KTIX 191852Z VRB04KT 7SM -RA SCT014 BKN035 OVC050 26/25 A2999
KTIX 191747Z VRB04KT 7SM BKN040 33/24 A2998
KTIX 191647Z 22010KT 7SM BKN035 33/23 A3000
KTIX 191558Z 21010KT 7SM SCT029 BKN047 33/24 A3001
KTIX 191455Z 21008KT 7SM SCT023 33/24 A3002
KTIX 191352Z 22007KT 7SM SCT020 31/25 A3002
KTIX 191247Z 22005KT 7SM SKC 29/27 A3001
KTIX 191147Z 20005KT 7SM SKC 27/26 A2999
KTIX 191047Z 21005KT 7SM SKC A2999
KTIX 190047Z 18004KT 7SM SCT120 27/26 A2999 RMK LAST
KTIX 182350Z 00000KT 7SM SCT120 28/27 A3000
KTIX 182050Z VRB04KT 6SM HZ SCT090 27/26 A3001 RMK VCSH
KTIX 181950Z VRBO06KT 7SM -RA SCT050 BKN060 BKN080 27/26 A3004
KTIX 181850Z VRBO06KT 7SM -RA BKN040 OVC060 26/15 A3005
KTIX 181647Z 20010KT 7SM SCT040 BKN050 34/22 A3003
KTIX 181547Z 21010KT 7SM SCT030 BKN050 33/243 A3004
KTIX 181447Z 24007KT 7SM SCT023 BKN030 BKN 036 31/24 A3005
KTIX 181347Z 22007KT 7SM SCT017 31/25 A3006
KTIX 181247Z 22005KT 7SM SKC 29/26 A3005
KTIX 181147Z 21005KT 7SM SKC 27/26 A3005 RMK LTG DIST W
KTIX 181047Z 21005KT 7SM SKC 26/24 A3004
KTIX 180051Z 00000KT 7SM SCT060 SCT085 SCT110 26/24 A3007 RMK LAST
KTIX 172345Z 00000KT 7SM SCT120 26/24 A3007
KTIX 172055Z 16015KT 7SM BKN050 BKN060 34/24 A3004
KTIX 171945Z 26010KT 7SM SCT050 SCT060 36/21 A3003
KTIX 171852Z 26010KT 7SM BKN043 BKN055 BKN070 35/22 A3005
KTIX 171647Z 21010KT 7SM SCT037 SCT049 BKN090 34/23 A3008
KTIX 171549Z 21007KT 7SM SCT035 33/23 A3009
KTIX 171455Z VRB05KT 7SM SCT100 32/24 A3011
KTIX 171347Z VRB05KT 7SM SCT100 31/24 A3011
KTIX 171247Z 20005KT 7SM SCT100 29/25 A3011
KTIX 171047Z 20005KT 7SM SCT100 A3009
KTIX 170047Z 00000KT 7SM SCT050 31/24 A3005 RMK LAST
KTIX 162347Z 00000KT 7SM BKN100 31/23 A3005
KTIX 162247Z VRB04KT 7SM BKN050 31/223 A3004
KTIX 162147Z 13010KT 7SM BKN030 33/22 A3003
KTIX 162047Z 12010KT 7SM SCT050 34/21 A3004
KTIX 161947Z 12008KT 7SM SCT050 35/22 A3004
KTIX 161849Z 13006KT 7SM SCT050 36/23 A3005
KTIX 161747Z 13008KT 7SM SCT049 36/21 A3007
KTIX 161650Z VRB06KT 7SM SCT047 34/22 A3009
KTIX 161552Z VRB04KT 7SM SCT025 33/22 A3010
KTIX 161447Z 20005KT 7SM SCT025 33/24 A3009
KTIX 161355Z 19007KT 7SM SKC 32/24 A3009
KTIX 161248Z 19007KT 7SM FEW120 30/23 A3008
KTIX 161152Z 19005KT 7SM FEW120 28/25 A3008
KTIX 160047Z 00000KT 7SM SCT050 321/23 A3003
KTIX 152347Z VRB06KT 7SM SCT050 32/22 A3001
KTIX 152247Z VRB06KT 7SM SCT050 34/23 A3001
KTIX 152147Z 00000KT 7SM FEW040 34/21 A3001
KTIX 152047Z 00000KT 7SM SCT040 34/22 A3002
KTIX 151947Z 03006KT 7SM SCT040 34/22 A3003
KTIX 151847Z VRB04KT 7SM SCT040 34/21 A3006
KTIX 151748Z VRB04KT 7SM SCT040 33/22 A3006
KTIX 151650Z VRB05KT 7SM SCT070 33/22 A3008
KTIX 151552Z VRB05KT 7SM SCT120 33/23 A3008
KTIX 151447Z 22005KT 7SM SCT120 31/24 A3008
KTIX 151252Z VRB04KT 7SM SCT120 27/26 A3008
KTIX 151150Z 00000KT 7SM SCT120 26/25 A3007
KTIX 151053Z 00000KT 7SM FEW120 A3006 RMK FIRST
KTIX 150047Z 14008KT 7SM FEW120 31/23 A3006 RMK LAST
KTIX 142355Z 14007KT 7SM FEW120 31/23 A3006
KTIX 142247Z 14007KT 7SM FEW040 32/23 A3004
KTIX 142150Z 14007KT 7SM FEW040 33/24 A3004
KTIX 142047Z 10008KT 7SM SCT040 33/24 A3007
KTIX 141950Z 10008KT 7SM SCT060 34/24 A3007
KTIX 141855Z 12008KT 7SM SCT060 34/20 A3008
KTIX 141758Z 08006KT 7SM SCT060 33/23 A3009
KTIX 141653Z 13005KT 7SM SCT040 32/23 A3012
KTIX 141555Z 06005KT 7SM SCT040 32/24 A3012
KTIX 141455Z 00000KT 7SM SCT120 32/23 A3011
KTIX 141350Z 00000KT 7SM SCT120 30/25 A3012
KTIX 141255Z 00000KT 7SM SCT120 28/27 A3012
KTIX 141145Z 00000KT 7SM SKC A3010
KTIX 140047Z 22005KT 7SM FEW080 29/24 A3011 RMK LAST
KTIX 132247Z 22005KT 7SM SCT035 30/23 A3010
KTIX 132155Z VRB05KT 7SM SCT035 33/23 A3009
KTIX 131947Z 06007KT 7SM SCT030 34/22 A3009
KTIX 131850Z 07010KT 7SM BKN090 34/23 A3012
KTIX 131750Z 07013KT 7SM BKN090 33/23 A3014
KTIX 131645Z 07013KT 7SM BKN090 34/22 A3015
KTIX 131552Z 07007KT 7SM BKN090 33/22 A3015
KTIX 131454Z 00000KT 7SM SKC 33/21 A3014
KTIX 131354Z 00000KT 7SM SKC 31/23 A3013
KTIX 131245Z 00000KT 7SM SKC 29/24 A3012
KTIX 131153Z 00000KT 7SM SKC 27/26 A3011
KTIX 131045Z 00000KT 7SM SKC 23/22 A3010
KTIX 130047Z 15005KT 7SM FEW120 29/21 A3010 RMK LAST
KTIX 122347Z 15005KT 7SM FEW120 30/22 A3008
KTIX 122247Z 08008KT 7SM SCT120 32/19 A3007
KTIX 122155Z 08008KT 7SM SCT120 33/19 A3007
KTIX 122047Z 06010KT 7SM SCT040 33/19 A3008
KTIX 121950Z 06008KT 7SM SCT040 33/19 A3010
KTIX 121852Z 10008KT 7SM SCT040 33/20 A3010
KTIX 121750Z 06008KT 7SM SCT040 33/21 A3012
KTIX 121547Z VRB06KT 7SM SCT040 32/21 A3013
KTIX 121450Z VRB06KT 7SM SCT040 31/22 A3012
KTIX 121251Z 00000KT 7SM SKC 28/23 A3010
KTIX 121149Z 00000KT 7SM SKC 26/24 A3007
KTIX 121047Z 00000KT 7SM SKC 23/22 A3005
KTIX 112352Z 12006KT 7SM SCT120 30/20 A3001
KTIX 112250Z 08008KT 7SM FEW120 31/21 A3000
KTIX 112155Z 09008KT 7SM FEW120 32/21 A3000
KTIX 112053Z 10012KT 7SM FEW060 32/20 A3002
KTIX 111956Z 090010KT 7SM FEW060 33/19 A3002
KTIX 111847Z 040010KT 7SM FEW060 33/19 A3004
KTIX 111747Z 05009KT 7SM FEW060 33/18 A3004
KTIX 111655Z 02005KT 7SM FEW060 33/19 A3005
KTIX 111552Z 07006KT 7SM FEW060 A3007
KTIX 111500Z VRB005KT 7SM FEW060 A3006
KTIX 111400Z 00000KT 7SM FEW060 A3004
KTIX 111147Z 00000KT 7SM SKC A3004
KTIX 111047Z 00000KT 7SM SKC A3003 RMK L
KTIX 110045Z 120010KT 7SM SKC A3002 RMK LAST
KTIX 102345Z 120010KT 7SM SKC A3002
KTIX 102246Z 090010KT 7SM FEW050 A3000
KTIX 102048Z 07006KT 7SM SCT020 A3001
KTIX 101950Z 07006KT 7SM SCT020 A3004
KTIX 101852Z 09007KT 7SM SCT020 A3007
KTIX 101647Z 07006KT 7SM SCT020 A3011
KTIX 101547Z VRB04KT 7SM SCT020 A3011
KTIX 101447Z VRB04KT 7SM FEW020 A3011
KTIX 101347Z 00000KT 7SM SCT020 A3011
KTIX 101247Z 27005KT 7SM SKC A3011
KTIX 101147Z 27005KT 7SM SKC A3011
KTIX 101047Z 27005KT 7SM SKC A3010
KTIX 100047Z 03005KT 7SM SCT025 A3013 RMK LAST
KTIX 092347Z 03005KT 7SM SCT025 A3012
KTIX 092247Z 01005KT 7SM SCT025 A3011
KTIX 092147Z 01010KT 7SM SCT020 SCT040 A3011
KTIX 092047Z 34007KT 7SM SCT025 BKN040 A3012
KTIX 091947Z 03007KT 7SM SCT027 BKN120 A3014
KTIX 091847Z 43007KT 7SM SCT028 BKN120 A3016
KTIX 091747Z 01007KT 7SM SCT021 BKN120 A3017
KTIX 091655Z 01007KT 7SM SCT025 BKN120 A3020 RMK TSRA DIST S LTG DIST NW THRU E
KTIX 091555Z 01007KT 7SM SCT025 A3020
KTIX 091517Z 01012KT 3SM -RA BKN020 A3020
KTIX 091450Z 31004KT 7SM SCT020 A3020 RMK VCSH
KTIX 091350Z 31004KT 7SM SCT010 A3020
KTIX 091247Z 25004KT 7SM SCT100 A3017
KTIX 091147Z 30005KT 7SM SCT030 A3017
KTIX 091047Z 30005KT 7SM SCT030 A3015
KTIX 090047Z 00000KT 7SM SCT030 A3013 RMK LAST
KTIX 082347Z 12005KT 7SM SCT030 A3013
KTIX 082247Z 12005KT 7SM SCT030 A3013
KTIX 082147Z 10007KT 7SM SCT030 A3013
KTIX 082047Z 08005KT 7SM BKN030 A3014
KTIX 081947Z 00000KT 7SM BKN030 A3014
KTIX 081847Z 08005KT 7SM BKN030 A3016
KTIX 081747Z VRB04KT 7SM SCT034 BKN120 A3017
KTIX 081450Z 03007KT 7SM SCT025 BKN120 A3019
KTIX 081350Z 03007KT 7SM FEW020 BKN120 A3019
KTIX 081153Z 00000KT 7SM FEW120 A3015
KTIX 081048Z 00000KT 6SM HZ FEW120 A3014 RMK FIRST
KTIX 080048Z 19004KT 7SM SCT050 BKN120 A3010 RMK LAST
KTIX 072348Z 19004KT 7SM SCT030 BKN120 A3008
KTIX 072248Z 22004KT 7SM SCT030 BKN120 A3007
KTIX 072150Z VRB04KT 7SM SCT030 BKN120 A3007 RMK TS W MOV NE
KTIX 072055Z 10007KT 7SM SCT050 BKN120 A3006
KTIX 071952Z 10007KT 7SM SCT050 A3008
KTIX 071852Z 07007KT 7SM SCT050 A3010
KTIX 071755Z 08007KT 7SM SCT037 BKN050 A3012
KTIX 071650Z 07006KT 7SM SCT035 A3012
KTIX 071504Z VRB04KT 7SM SCT120 A3013
KTIX 071355Z VRB04KT 7SM SCT120 A3013
KTIX 071252Z 23004KT 7SM SCT005 SCT030 A3013
KTIX 071147Z 00000KT 7SM FEW050 A3010
KTIX 071046Z 00000KT 7SM FEW080 BKN120 A3007
KTIX 070047Z 00000KT 7SM FEW080 BKN120 A3007 RMK LAST
KTIX 062350Z 00000KT 7SM FEW050 BKN120 A3007
KTIX 062250Z 00000KT 7SM FEW050 BKN120 A3007
KTIX 062150Z 00000KT 7SM FEW025 BKN120 A3006
KTIX 062047Z VRB04KT 7SM SCT025 OVC120 A3014 RMK VCSH
KTIX 061947Z VRB04KT 7SM SCT050 OVC100 A3013 RMK VCSH
KTIX 061559Z 10005KT 7SM BKN025 BKN030 A3016
KTIX 061450Z 10005KT 7SM SCT020 SCT110 A3015
KTIX 061355Z 10005KT 7SM SCT085 A3016
KTIX 061245Z 05007KT 7SM SCT085 A3017
KTIX 061145Z 03005KT 7SM FEW050 A3015
KTIX 060047Z 00000KT 7SM FEW023 SCT060 SCTBKN120 A3014 RMK LAST
KTIX 052347Z 00000KT 7SM FEW030 SCT050 SCTBKN120 A3013
KTIX 052250Z 00000KT 7SM FEW030 SCT050 SCTBKN070 A3013
KTIX 052147Z 00000KT 6SM -RA SCT030 BKN070 A3012
KTIX 052047Z 14010KT 6SM -RA BKN023 BKN036 A3013
KTIX 051947Z 12010KT 7SM BKN035 A3012
KTIX 051847Z 12010KT 7SM BKN035 A3014
KTIX 051747Z 12010KT 7SM BKN030 A3015
KTIX 051647Z 12010KT 7SM BKN030 A3015
KTIX 051547Z 11010KT 7SM BKN030 A3017
KTIX 051447Z 12006KT 7SM SCT030 A3016
KTIX 051307Z 10007KT 7SM SCT080 A3013
KTIX 051147Z 00000KT 7SM SCT070 A3013
KTIX 051047Z 00000KT 7SM FEW070 A3013